sensor_id;sensor_type;location;lat;lon;timestamp;P1;durP1;ratioP1;P2;durP2;ratioP2
72771;SDS011;60894;42.544;1.516;2023-05-29T00:01:09;12.27;;;3.40;;
72771;SDS011;60894;42.544;1.516;2023-05-29T00:03:36;12.57;;;3.42;;
72771;SDS011;60894;42.544;1.516;2023-05-29T00:06:03;10.40;;;3.03;;
72771;SDS011;60894;42.544;1.516;2023-05-29T00:08:31;10.25;;;3.58;;
72771;SDS011;60894;42.544;1.516;2023-05-29T00:11:00;9.40;;;3.10;;
72771;SDS011;60894;42.544;1.516;2023-05-29T00:13:27;11.30;;;3.77;;
72771;SDS011;60894;42.544;1.516;2023-05-29T00:15:53;11.82;;;3.58;;
72771;SDS011;60894;42.544;1.516;2023-05-29T00:18:20;11.55;;;4.03;;
72771;SDS011;60894;42.544;1.516;2023-05-29T00:20:47;15.13;;;5.20;;
72771;SDS011;60894;42.544;1.516;2023-05-29T00:23:14;11.40;;;3.67;;
72771;SDS011;60894;42.544;1.516;2023-05-29T00:25:41;12.73;;;3.70;;
72771;SDS011;60894;42.544;1.516;2023-05-29T00:28:09;13.05;;;3.42;;
72771;SDS011;60894;42.544;1.516;2023-05-29T00:30:37;13.32;;;3.95;;
72771;SDS011;60894;42.544;1.516;2023-05-29T00:33:04;11.32;;;3.60;;
72771;SDS011;60894;42.544;1.516;2023-05-29T00:35:32;17.73;;;3.78;;
72771;SDS011;60894;42.544;1.516;2023-05-29T00:37:58;11.30;;;3.80;;
72771;SDS011;60894;42.544;1.516;2023-05-29T00:40:25;13.40;;;3.83;;
72771;SDS011;60894;42.544;1.516;2023-05-29T00:42:52;9.73;;;3.53;;
72771;SDS011;60894;42.544;1.516;2023-05-29T00:45:21;12.15;;;3.85;;
72771;SDS011;60894;42.544;1.516;2023-05-29T00:47:48;12.45;;;3.65;;
72771;SDS011;60894;42.544;1.516;2023-05-29T00:50:15;13.47;;;4.20;;
72771;SDS011;60894;42.544;1.516;2023-05-29T00:52:42;14.60;;;4.00;;
72771;SDS011;60894;42.544;1.516;2023-05-29T00:55:11;15.57;;;3.30;;
72771;SDS011;60894;42.544;1.516;2023-05-29T00:57:39;12.98;;;3.97;;
72771;SDS011;60894;42.544;1.516;2023-05-29T01:00:06;13.45;;;3.55;;
72771;SDS011;60894;42.544;1.516;2023-05-29T01:02:40;14.00;;;3.87;;
72771;SDS011;60894;42.544;1.516;2023-05-29T01:05:09;11.65;;;3.70;;
72771;SDS011;60894;42.544;1.516;2023-05-29T01:07:36;12.93;;;3.90;;
72771;SDS011;60894;42.544;1.516;2023-05-29T01:10:04;12.48;;;3.55;;
72771;SDS011;60894;42.544;1.516;2023-05-29T01:12:33;16.95;;;4.25;;
72771;SDS011;60894;42.544;1.516;2023-05-29T01:15:12;12.47;;;3.80;;
72771;SDS011;60894;42.544;1.516;2023-05-29T01:17:50;14.48;;;4.20;;
72771;SDS011;60894;42.544;1.516;2023-05-29T01:20:34;14.40;;;4.30;;
72771;SDS011;60894;42.544;1.516;2023-05-29T01:23:07;13.93;;;3.50;;
72771;SDS011;60894;42.544;1.516;2023-05-29T01:25:52;13.57;;;3.63;;
72771;SDS011;60894;42.544;1.516;2023-05-29T01:28:36;10.13;;;3.53;;
72771;SDS011;60894;42.544;1.516;2023-05-29T01:31:07;11.82;;;4.03;;
72771;SDS011;60894;42.544;1.516;2023-05-29T01:33:38;13.57;;;4.28;;
72771;SDS011;60894;42.544;1.516;2023-05-29T01:36:06;13.50;;;3.95;;
72771;SDS011;60894;42.544;1.516;2023-05-29T01:38:33;11.02;;;3.90;;
72771;SDS011;60894;42.544;1.516;2023-05-29T01:41:01;14.23;;;3.63;;
72771;SDS011;60894;42.544;1.516;2023-05-29T01:43:29;12.90;;;3.90;;
72771;SDS011;60894;42.544;1.516;2023-05-29T01:45:58;12.88;;;3.88;;
72771;SDS011;60894;42.544;1.516;2023-05-29T01:48:26;11.02;;;3.95;;
72771;SDS011;60894;42.544;1.516;2023-05-29T01:50:54;13.30;;;4.20;;
72771;SDS011;60894;42.544;1.516;2023-05-29T01:53:21;13.23;;;3.67;;
72771;SDS011;60894;42.544;1.516;2023-05-29T01:55:49;13.73;;;4.00;;
72771;SDS011;60894;42.544;1.516;2023-05-29T01:58:16;12.73;;;4.00;;
72771;SDS011;60894;42.544;1.516;2023-05-29T02:00:45;13.70;;;3.63;;
72771;SDS011;60894;42.544;1.516;2023-05-29T02:03:13;14.98;;;3.97;;
72771;SDS011;60894;42.544;1.516;2023-05-29T02:05:40;15.23;;;4.13;;
72771;SDS011;60894;42.544;1.516;2023-05-29T02:08:07;15.50;;;4.10;;
72771;SDS011;60894;42.544;1.516;2023-05-29T02:10:34;14.23;;;4.55;;
72771;SDS011;60894;42.544;1.516;2023-05-29T02:13:00;16.95;;;4.53;;
72771;SDS011;60894;42.544;1.516;2023-05-29T02:15:27;15.45;;;4.55;;
72771;SDS011;60894;42.544;1.516;2023-05-29T02:17:54;13.20;;;3.70;;
72771;SDS011;60894;42.544;1.516;2023-05-29T02:20:23;14.75;;;4.13;;
72771;SDS011;60894;42.544;1.516;2023-05-29T02:22:50;14.13;;;4.38;;
72771;SDS011;60894;42.544;1.516;2023-05-29T02:25:18;13.02;;;3.70;;
72771;SDS011;60894;42.544;1.516;2023-05-29T02:27:45;13.68;;;3.97;;
72771;SDS011;60894;42.544;1.516;2023-05-29T02:30:12;11.10;;;3.87;;
72771;SDS011;60894;42.544;1.516;2023-05-29T02:32:38;11.60;;;4.15;;
72771;SDS011;60894;42.544;1.516;2023-05-29T02:35:06;12.50;;;4.00;;
72771;SDS011;60894;42.544;1.516;2023-05-29T02:37:35;14.98;;;3.95;;
72771;SDS011;60894;42.544;1.516;2023-05-29T02:40:02;12.57;;;4.13;;
72771;SDS011;60894;42.544;1.516;2023-05-29T02:42:29;10.10;;;4.23;;
72771;SDS011;60894;42.544;1.516;2023-05-29T02:44:56;15.93;;;4.53;;
72771;SDS011;60894;42.544;1.516;2023-05-29T02:47:22;15.43;;;4.05;;
72771;SDS011;60894;42.544;1.516;2023-05-29T02:49:49;12.80;;;4.15;;
72771;SDS011;60894;42.544;1.516;2023-05-29T02:52:16;13.32;;;4.00;;
72771;SDS011;60894;42.544;1.516;2023-05-29T02:54:44;16.40;;;4.40;;
72771;SDS011;60894;42.544;1.516;2023-05-29T02:57:12;12.57;;;4.47;;
72771;SDS011;60894;42.544;1.516;2023-05-29T02:59:38;14.70;;;4.30;;
72771;SDS011;60894;42.544;1.516;2023-05-29T03:02:05;10.48;;;4.25;;
72771;SDS011;60894;42.544;1.516;2023-05-29T03:04:32;15.52;;;4.60;;
72771;SDS011;60894;42.544;1.516;2023-05-29T03:06:59;15.20;;;4.03;;
72771;SDS011;60894;42.544;1.516;2023-05-29T03:09:27;12.95;;;4.28;;
72771;SDS011;60894;42.544;1.516;2023-05-29T03:11:55;10.65;;;3.97;;
72771;SDS011;60894;42.544;1.516;2023-05-29T03:14:22;13.40;;;4.75;;
72771;SDS011;60894;42.544;1.516;2023-05-29T03:16:49;11.80;;;4.45;;
72771;SDS011;60894;42.544;1.516;2023-05-29T03:19:16;11.83;;;4.40;;
72771;SDS011;60894;42.544;1.516;2023-05-29T03:21:43;13.30;;;3.85;;
72771;SDS011;60894;42.544;1.516;2023-05-29T03:24:10;11.82;;;4.10;;
72771;SDS011;60894;42.544;1.516;2023-05-29T03:26:38;11.90;;;4.13;;
72771;SDS011;60894;42.544;1.516;2023-05-29T03:29:07;14.80;;;4.55;;
72771;SDS011;60894;42.544;1.516;2023-05-29T03:31:34;14.07;;;3.90;;
72771;SDS011;60894;42.544;1.516;2023-05-29T03:34:01;13.68;;;3.80;;
72771;SDS011;60894;42.544;1.516;2023-05-29T03:36:28;11.75;;;4.05;;
72771;SDS011;60894;42.544;1.516;2023-05-29T03:38:55;14.18;;;3.92;;
72771;SDS011;60894;42.544;1.516;2023-05-29T03:41:21;11.73;;;3.97;;
72771;SDS011;60894;42.544;1.516;2023-05-29T03:43:48;13.20;;;4.30;;
72771;SDS011;60894;42.544;1.516;2023-05-29T03:46:17;13.32;;;4.30;;
72771;SDS011;60894;42.544;1.516;2023-05-29T03:48:44;12.27;;;4.07;;
72771;SDS011;60894;42.544;1.516;2023-05-29T03:51:11;14.55;;;4.07;;
72771;SDS011;60894;42.544;1.516;2023-05-29T03:53:38;17.05;;;5.10;;
72771;SDS011;60894;42.544;1.516;2023-05-29T03:56:05;12.57;;;4.00;;
72771;SDS011;60894;42.544;1.516;2023-05-29T03:58:32;12.75;;;4.57;;
72771;SDS011;60894;42.544;1.516;2023-05-29T04:00:59;16.40;;;3.97;;
72771;SDS011;60894;42.544;1.516;2023-05-29T04:03:27;14.77;;;4.15;;
72771;SDS011;60894;42.544;1.516;2023-05-29T04:05:56;14.75;;;4.03;;
72771;SDS011;60894;42.544;1.516;2023-05-29T04:08:23;16.03;;;4.40;;
72771;SDS011;60894;42.544;1.516;2023-05-29T04:10:50;13.75;;;3.65;;
72771;SDS011;60894;42.544;1.516;2023-05-29T04:13:19;11.95;;;3.80;;
72771;SDS011;60894;42.544;1.516;2023-05-29T04:15:46;12.57;;;3.70;;
72771;SDS011;60894;42.544;1.516;2023-05-29T04:18:13;12.93;;;4.20;;
72771;SDS011;60894;42.544;1.516;2023-05-29T04:20:41;13.50;;;4.17;;
72771;SDS011;60894;42.544;1.516;2023-05-29T04:23:10;10.88;;;4.22;;
72771;SDS011;60894;42.544;1.516;2023-05-29T04:25:37;14.18;;;3.80;;
72771;SDS011;60894;42.544;1.516;2023-05-29T04:28:04;17.27;;;4.47;;
72771;SDS011;60894;42.544;1.516;2023-05-29T04:30:31;13.15;;;4.25;;
72771;SDS011;60894;42.544;1.516;2023-05-29T04:32:58;11.23;;;4.37;;
72771;SDS011;60894;42.544;1.516;2023-05-29T04:35:25;13.45;;;3.88;;
72771;SDS011;60894;42.544;1.516;2023-05-29T04:37:54;12.98;;;4.07;;
72771;SDS011;60894;42.544;1.516;2023-05-29T04:40:23;13.85;;;3.92;;
72771;SDS011;60894;42.544;1.516;2023-05-29T04:42:49;13.80;;;4.40;;
72771;SDS011;60894;42.544;1.516;2023-05-29T04:45:19;11.13;;;4.13;;
72771;SDS011;60894;42.544;1.516;2023-05-29T04:47:46;16.50;;;4.60;;
72771;SDS011;60894;42.544;1.516;2023-05-29T04:50:13;15.02;;;4.80;;
72771;SDS011;60894;42.544;1.516;2023-05-29T04:52:41;14.95;;;4.30;;
72771;SDS011;60894;42.544;1.516;2023-05-29T04:55:10;13.60;;;4.22;;
72771;SDS011;60894;42.544;1.516;2023-05-29T04:57:37;12.30;;;4.00;;
72771;SDS011;60894;42.544;1.516;2023-05-29T05:00:04;11.05;;;3.95;;
72771;SDS011;60894;42.544;1.516;2023-05-29T05:02:33;11.52;;;4.25;;
72771;SDS011;60894;42.544;1.516;2023-05-29T05:05:00;12.35;;;4.22;;
72771;SDS011;60894;42.544;1.516;2023-05-29T05:07:27;12.73;;;4.53;;
72771;SDS011;60894;42.544;1.516;2023-05-29T05:09:54;15.27;;;4.10;;
72771;SDS011;60894;42.544;1.516;2023-05-29T05:12:22;11.93;;;4.43;;
72771;SDS011;60894;42.544;1.516;2023-05-29T05:14:49;15.23;;;4.65;;
72771;SDS011;60894;42.544;1.516;2023-05-29T05:17:16;14.82;;;3.97;;
72771;SDS011;60894;42.544;1.516;2023-05-29T05:19:43;14.82;;;4.32;;
72771;SDS011;60894;42.544;1.516;2023-05-29T05:22:10;12.87;;;4.00;;
72771;SDS011;60894;42.544;1.516;2023-05-29T05:24:37;15.85;;;4.60;;
72771;SDS011;60894;42.544;1.516;2023-05-29T05:27:04;15.35;;;4.22;;
72771;SDS011;60894;42.544;1.516;2023-05-29T05:29:33;12.90;;;4.20;;
72771;SDS011;60894;42.544;1.516;2023-05-29T05:31:59;14.93;;;4.20;;
72771;SDS011;60894;42.544;1.516;2023-05-29T05:34:26;13.93;;;4.20;;
72771;SDS011;60894;42.544;1.516;2023-05-29T05:36:53;14.30;;;4.68;;
72771;SDS011;60894;42.544;1.516;2023-05-29T05:39:20;15.57;;;4.40;;
72771;SDS011;60894;42.544;1.516;2023-05-29T05:41:47;13.88;;;4.38;;
72771;SDS011;60894;42.544;1.516;2023-05-29T05:44:14;13.88;;;4.80;;
72771;SDS011;60894;42.544;1.516;2023-05-29T05:46:42;17.07;;;4.53;;
72771;SDS011;60894;42.544;1.516;2023-05-29T05:49:10;14.05;;;4.82;;
72771;SDS011;60894;42.544;1.516;2023-05-29T05:51:36;15.57;;;4.30;;
72771;SDS011;60894;42.544;1.516;2023-05-29T05:54:03;13.65;;;4.65;;
72771;SDS011;60894;42.544;1.516;2023-05-29T05:56:30;14.43;;;3.95;;
72771;SDS011;60894;42.544;1.516;2023-05-29T05:58:57;15.23;;;4.10;;
72771;SDS011;60894;42.544;1.516;2023-05-29T06:01:24;17.10;;;4.57;;
72771;SDS011;60894;42.544;1.516;2023-05-29T06:03:53;18.17;;;4.10;;
72771;SDS011;60894;42.544;1.516;2023-05-29T06:06:20;20.20;;;4.70;;
72771;SDS011;60894;42.544;1.516;2023-05-29T06:08:47;13.82;;;4.32;;
72771;SDS011;60894;42.544;1.516;2023-05-29T06:11:14;13.17;;;4.23;;
72771;SDS011;60894;42.544;1.516;2023-05-29T06:13:42;15.07;;;4.40;;
72771;SDS011;60894;42.544;1.516;2023-05-29T06:16:09;15.55;;;4.63;;
72771;SDS011;60894;42.544;1.516;2023-05-29T06:18:36;13.85;;;3.75;;
72771;SDS011;60894;42.544;1.516;2023-05-29T06:21:05;17.10;;;4.53;;
72771;SDS011;60894;42.544;1.516;2023-05-29T06:23:32;14.37;;;4.10;;
72771;SDS011;60894;42.544;1.516;2023-05-29T06:26:01;15.73;;;4.68;;
72771;SDS011;60894;42.544;1.516;2023-05-29T06:28:28;15.10;;;4.00;;
72771;SDS011;60894;42.544;1.516;2023-05-29T06:30:55;16.60;;;3.88;;
72771;SDS011;60894;42.544;1.516;2023-05-29T06:33:22;14.43;;;3.90;;
72771;SDS011;60894;42.544;1.516;2023-05-29T06:35:49;11.13;;;4.00;;
72771;SDS011;60894;42.544;1.516;2023-05-29T06:38:17;16.20;;;4.22;;
72771;SDS011;60894;42.544;1.516;2023-05-29T06:40:44;15.88;;;3.72;;
72771;SDS011;60894;42.544;1.516;2023-05-29T06:43:11;16.20;;;3.70;;
72771;SDS011;60894;42.544;1.516;2023-05-29T06:45:38;17.73;;;3.97;;
72771;SDS011;60894;42.544;1.516;2023-05-29T06:48:05;14.53;;;3.87;;
72771;SDS011;60894;42.544;1.516;2023-05-29T06:50:32;21.65;;;4.85;;
72771;SDS011;60894;42.544;1.516;2023-05-29T06:53:00;17.63;;;3.95;;
72771;SDS011;60894;42.544;1.516;2023-05-29T06:55:28;16.80;;;3.85;;
72771;SDS011;60894;42.544;1.516;2023-05-29T06:57:55;14.93;;;3.70;;
72771;SDS011;60894;42.544;1.516;2023-05-29T07:00:22;16.00;;;3.97;;
72771;SDS011;60894;42.544;1.516;2023-05-29T07:02:49;15.73;;;3.88;;
72771;SDS011;60894;42.544;1.516;2023-05-29T07:05:16;17.33;;;4.35;;
72771;SDS011;60894;42.544;1.516;2023-05-29T07:07:44;14.50;;;3.90;;
72771;SDS011;60894;42.544;1.516;2023-05-29T07:10:11;14.52;;;4.72;;
72771;SDS011;60894;42.544;1.516;2023-05-29T07:12:39;13.80;;;3.80;;
72771;SDS011;60894;42.544;1.516;2023-05-29T07:15:06;15.52;;;3.90;;
72771;SDS011;60894;42.544;1.516;2023-05-29T07:17:34;17.15;;;4.22;;
72771;SDS011;60894;42.544;1.516;2023-05-29T07:20:01;16.80;;;4.00;;
72771;SDS011;60894;42.544;1.516;2023-05-29T07:22:28;14.50;;;3.95;;
72771;SDS011;60894;42.544;1.516;2023-05-29T07:24:55;16.57;;;4.07;;
72771;SDS011;60894;42.544;1.516;2023-05-29T07:27:21;13.82;;;3.78;;
72771;SDS011;60894;42.544;1.516;2023-05-29T07:29:50;17.88;;;4.20;;
72771;SDS011;60894;42.544;1.516;2023-05-29T07:32:17;16.17;;;4.22;;
72771;SDS011;60894;42.544;1.516;2023-05-29T07:34:44;13.98;;;4.07;;
72771;SDS011;60894;42.544;1.516;2023-05-29T07:37:11;13.27;;;4.00;;
72771;SDS011;60894;42.544;1.516;2023-05-29T07:39:37;16.30;;;3.70;;
72771;SDS011;60894;42.544;1.516;2023-05-29T07:42:05;14.88;;;4.30;;
72771;SDS011;60894;42.544;1.516;2023-05-29T07:44:32;18.55;;;3.78;;
72771;SDS011;60894;42.544;1.516;2023-05-29T07:47:00;15.20;;;4.13;;
72771;SDS011;60894;42.544;1.516;2023-05-29T07:49:27;17.23;;;3.63;;
72771;SDS011;60894;42.544;1.516;2023-05-29T07:51:54;14.50;;;3.42;;
72771;SDS011;60894;42.544;1.516;2023-05-29T07:54:21;16.10;;;3.58;;
72771;SDS011;60894;42.544;1.516;2023-05-29T07:56:48;16.40;;;3.60;;
72771;SDS011;60894;42.544;1.516;2023-05-29T07:59:15;14.43;;;3.20;;
72771;SDS011;60894;42.544;1.516;2023-05-29T08:01:42;16.17;;;3.90;;
72771;SDS011;60894;42.544;1.516;2023-05-29T08:04:11;13.27;;;3.70;;
72771;SDS011;60894;42.544;1.516;2023-05-29T08:06:37;18.45;;;4.03;;
72771;SDS011;60894;42.544;1.516;2023-05-29T08:09:07;16.80;;;3.60;;
72771;SDS011;60894;42.544;1.516;2023-05-29T08:11:35;15.95;;;3.40;;
72771;SDS011;60894;42.544;1.516;2023-05-29T08:14:02;18.63;;;4.20;;
72771;SDS011;60894;42.544;1.516;2023-05-29T08:16:29;14.98;;;3.78;;
72771;SDS011;60894;42.544;1.516;2023-05-29T08:18:56;17.60;;;3.67;;
72771;SDS011;60894;42.544;1.516;2023-05-29T08:21:25;16.10;;;3.70;;
72771;SDS011;60894;42.544;1.516;2023-05-29T08:23:52;16.38;;;3.90;;
72771;SDS011;60894;42.544;1.516;2023-05-29T08:26:19;19.37;;;3.60;;
72771;SDS011;60894;42.544;1.516;2023-05-29T08:28:52;13.85;;;3.67;;
72771;SDS011;60894;42.544;1.516;2023-05-29T08:31:20;15.35;;;3.28;;
72771;SDS011;60894;42.544;1.516;2023-05-29T08:33:49;17.00;;;3.30;;
72771;SDS011;60894;42.544;1.516;2023-05-29T08:36:16;17.20;;;3.47;;
72771;SDS011;60894;42.544;1.516;2023-05-29T08:38:47;14.13;;;2.97;;
72771;SDS011;60894;42.544;1.516;2023-05-29T08:41:15;18.38;;;3.78;;
72771;SDS011;60894;42.544;1.516;2023-05-29T08:43:48;15.95;;;3.20;;
72771;SDS011;60894;42.544;1.516;2023-05-29T08:46:16;17.75;;;3.50;;
72771;SDS011;60894;42.544;1.516;2023-05-29T08:48:45;12.07;;;2.97;;
72771;SDS011;60894;42.544;1.516;2023-05-29T08:51:16;16.73;;;3.53;;
72771;SDS011;60894;42.544;1.516;2023-05-29T08:53:48;12.27;;;3.17;;
72771;SDS011;60894;42.544;1.516;2023-05-29T08:56:16;17.38;;;4.00;;
72771;SDS011;60894;42.544;1.516;2023-05-29T08:58:43;14.25;;;2.60;;
72771;SDS011;60894;42.544;1.516;2023-05-29T09:01:11;14.95;;;3.03;;
72771;SDS011;60894;42.544;1.516;2023-05-29T09:03:38;14.53;;;3.40;;
72771;SDS011;60894;42.544;1.516;2023-05-29T09:06:06;14.73;;;3.38;;
72771;SDS011;60894;42.544;1.516;2023-05-29T09:08:34;16.77;;;3.60;;
72771;SDS011;60894;42.544;1.516;2023-05-29T09:11:03;11.52;;;3.10;;
72771;SDS011;60894;42.544;1.516;2023-05-29T09:13:30;15.27;;;3.67;;
72771;SDS011;60894;42.544;1.516;2023-05-29T09:15:57;12.77;;;2.50;;
72771;SDS011;60894;42.544;1.516;2023-05-29T09:18:28;12.52;;;2.95;;
72771;SDS011;60894;42.544;1.516;2023-05-29T09:20:57;11.07;;;2.97;;
72771;SDS011;60894;42.544;1.516;2023-05-29T09:23:24;12.88;;;2.97;;
72771;SDS011;60894;42.544;1.516;2023-05-29T09:25:53;13.88;;;3.33;;
72771;SDS011;60894;42.544;1.516;2023-05-29T09:28:21;9.93;;;2.43;;
72771;SDS011;60894;42.544;1.516;2023-05-29T09:30:52;10.95;;;3.08;;
72771;SDS011;60894;42.544;1.516;2023-05-29T09:33:18;11.98;;;2.50;;
72771;SDS011;60894;42.544;1.516;2023-05-29T09:35:46;11.90;;;2.47;;
72771;SDS011;60894;42.544;1.516;2023-05-29T09:38:14;10.80;;;3.10;;
72771;SDS011;60894;42.544;1.516;2023-05-29T09:40:43;9.03;;;2.40;;
72771;SDS011;60894;42.544;1.516;2023-05-29T09:43:12;11.90;;;2.80;;
72771;SDS011;60894;42.544;1.516;2023-05-29T09:45:43;12.68;;;3.13;;
72771;SDS011;60894;42.544;1.516;2023-05-29T09:48:12;10.05;;;2.95;;
72771;SDS011;60894;42.544;1.516;2023-05-29T09:50:40;11.15;;;2.70;;
72771;SDS011;60894;42.544;1.516;2023-05-29T09:53:19;11.10;;;2.70;;
72771;SDS011;60894;42.544;1.516;2023-05-29T09:55:49;11.23;;;3.00;;
72771;SDS011;60894;42.544;1.516;2023-05-29T09:58:17;11.25;;;2.55;;
72771;SDS011;60894;42.544;1.516;2023-05-29T10:00:46;11.00;;;2.88;;
72771;SDS011;60894;42.544;1.516;2023-05-29T10:03:13;12.27;;;2.50;;
72771;SDS011;60894;42.544;1.516;2023-05-29T10:05:42;12.47;;;3.07;;
72771;SDS011;60894;42.544;1.516;2023-05-29T10:08:11;11.52;;;2.65;;
72771;SDS011;60894;42.544;1.516;2023-05-29T10:10:39;14.38;;;2.78;;
72771;SDS011;60894;42.544;1.516;2023-05-29T10:13:11;8.70;;;2.75;;
72771;SDS011;60894;42.544;1.516;2023-05-29T10:15:39;11.98;;;2.63;;
72771;SDS011;60894;42.544;1.516;2023-05-29T10:18:12;11.47;;;2.80;;
72771;SDS011;60894;42.544;1.516;2023-05-29T10:20:45;12.68;;;2.67;;
72771;SDS011;60894;42.544;1.516;2023-05-29T10:23:14;12.23;;;2.80;;
72771;SDS011;60894;42.544;1.516;2023-05-29T10:25:41;11.30;;;2.78;;
72771;SDS011;60894;42.544;1.516;2023-05-29T10:28:12;12.65;;;3.63;;
72771;SDS011;60894;42.544;1.516;2023-05-29T10:30:40;9.17;;;2.33;;
72771;SDS011;60894;42.544;1.516;2023-05-29T10:33:17;12.55;;;2.80;;
72771;SDS011;60894;42.544;1.516;2023-05-29T10:35:53;9.95;;;2.63;;
72771;SDS011;60894;42.544;1.516;2023-05-29T10:38:26;11.35;;;2.65;;
72771;SDS011;60894;42.544;1.516;2023-05-29T10:40:53;12.38;;;2.63;;
72771;SDS011;60894;42.544;1.516;2023-05-29T10:43:29;10.93;;;3.00;;
72771;SDS011;60894;42.544;1.516;2023-05-29T10:45:58;8.40;;;2.47;;
72771;SDS011;60894;42.544;1.516;2023-05-29T10:48:42;10.43;;;2.83;;
72771;SDS011;60894;42.544;1.516;2023-05-29T10:53:58;13.35;;;2.72;;
72771;SDS011;60894;42.544;1.516;2023-05-29T10:56:28;12.93;;;2.60;;
72771;SDS011;60894;42.544;1.516;2023-05-29T10:58:57;9.32;;;2.90;;
72771;SDS011;60894;42.544;1.516;2023-05-29T11:01:27;9.57;;;2.97;;
72771;SDS011;60894;42.544;1.516;2023-05-29T11:04:08;11.70;;;2.88;;
72771;SDS011;60894;42.544;1.516;2023-05-29T11:06:57;8.38;;;2.75;;
72771;SDS011;60894;42.544;1.516;2023-05-29T11:09:28;12.53;;;2.97;;
72771;SDS011;60894;42.544;1.516;2023-05-29T11:12:15;11.90;;;3.00;;
72771;SDS011;60894;42.544;1.516;2023-05-29T11:14:54;14.30;;;3.67;;
72771;SDS011;60894;42.544;1.516;2023-05-29T11:17:28;11.48;;;2.63;;
72771;SDS011;60894;42.544;1.516;2023-05-29T11:20:02;11.15;;;2.70;;
72771;SDS011;60894;42.544;1.516;2023-05-29T11:22:34;8.83;;;2.60;;
72771;SDS011;60894;42.544;1.516;2023-05-29T11:25:13;7.35;;;2.30;;
72771;SDS011;60894;42.544;1.516;2023-05-29T11:27:40;11.45;;;3.30;;
72771;SDS011;60894;42.544;1.516;2023-05-29T11:30:07;10.73;;;3.50;;
72771;SDS011;60894;42.544;1.516;2023-05-29T11:32:36;9.48;;;2.55;;
72771;SDS011;60894;42.544;1.516;2023-05-29T11:35:06;11.33;;;3.13;;
72771;SDS011;60894;42.544;1.516;2023-05-29T11:37:34;10.45;;;3.00;;
72771;SDS011;60894;42.544;1.516;2023-05-29T11:40:02;9.68;;;2.90;;
72771;SDS011;60894;42.544;1.516;2023-05-29T11:42:30;8.23;;;2.50;;
72771;SDS011;60894;42.544;1.516;2023-05-29T11:45:09;9.52;;;2.88;;
72771;SDS011;60894;42.544;1.516;2023-05-29T11:47:50;8.63;;;2.90;;
72771;SDS011;60894;42.544;1.516;2023-05-29T11:50:20;11.68;;;3.40;;
72771;SDS011;60894;42.544;1.516;2023-05-29T11:52:47;8.07;;;2.95;;
72771;SDS011;60894;42.544;1.516;2023-05-29T11:55:14;9.23;;;3.03;;
72771;SDS011;60894;42.544;1.516;2023-05-29T11:57:41;12.45;;;3.13;;
72771;SDS011;60894;42.544;1.516;2023-05-29T12:00:11;10.43;;;2.70;;
72771;SDS011;60894;42.544;1.516;2023-05-29T12:02:39;9.57;;;2.35;;
72771;SDS011;60894;42.544;1.516;2023-05-29T12:05:08;10.73;;;2.88;;
72771;SDS011;60894;42.544;1.516;2023-05-29T12:07:36;12.18;;;3.20;;
72771;SDS011;60894;42.544;1.516;2023-05-29T12:10:10;9.18;;;2.38;;
72771;SDS011;60894;42.544;1.516;2023-05-29T12:12:37;9.33;;;2.93;;
72771;SDS011;60894;42.544;1.516;2023-05-29T12:15:05;9.48;;;3.17;;
72771;SDS011;60894;42.544;1.516;2023-05-29T12:17:33;10.73;;;3.50;;
72771;SDS011;60894;42.544;1.516;2023-05-29T12:20:00;8.18;;;3.08;;
72771;SDS011;60894;42.544;1.516;2023-05-29T12:22:32;8.80;;;2.80;;
72771;SDS011;60894;42.544;1.516;2023-05-29T12:25:06;8.77;;;2.87;;
72771;SDS011;60894;42.544;1.516;2023-05-29T12:27:36;10.50;;;2.50;;
72771;SDS011;60894;42.544;1.516;2023-05-29T12:30:08;9.20;;;3.10;;
72771;SDS011;60894;42.544;1.516;2023-05-29T12:32:37;10.27;;;2.90;;
72771;SDS011;60894;42.544;1.516;2023-05-29T12:35:16;8.80;;;2.65;;
72771;SDS011;60894;42.544;1.516;2023-05-29T12:37:45;8.03;;;2.40;;
72771;SDS011;60894;42.544;1.516;2023-05-29T12:40:18;9.18;;;2.50;;
72771;SDS011;60894;42.544;1.516;2023-05-29T12:42:46;9.45;;;2.80;;
72771;SDS011;60894;42.544;1.516;2023-05-29T12:45:14;14.05;;;3.00;;
72771;SDS011;60894;42.544;1.516;2023-05-29T12:47:50;8.25;;;2.55;;
72771;SDS011;60894;42.544;1.516;2023-05-29T12:50:21;11.90;;;2.80;;
72771;SDS011;60894;42.544;1.516;2023-05-29T12:52:56;8.18;;;2.60;;
72771;SDS011;60894;42.544;1.516;2023-05-29T12:55:25;8.43;;;2.95;;
72771;SDS011;60894;42.544;1.516;2023-05-29T12:57:53;8.52;;;3.03;;
72771;SDS011;60894;42.544;1.516;2023-05-29T13:00:20;9.00;;;2.83;;
72771;SDS011;60894;42.544;1.516;2023-05-29T13:02:48;10.83;;;2.53;;
72771;SDS011;60894;42.544;1.516;2023-05-29T13:05:15;7.75;;;2.30;;
72771;SDS011;60894;42.544;1.516;2023-05-29T13:07:44;7.93;;;2.85;;
72771;SDS011;60894;42.544;1.516;2023-05-29T13:10:13;7.40;;;2.58;;
72771;SDS011;60894;42.544;1.516;2023-05-29T13:12:41;8.23;;;2.40;;
72771;SDS011;60894;42.544;1.516;2023-05-29T13:15:09;6.87;;;2.30;;
72771;SDS011;60894;42.544;1.516;2023-05-29T13:17:38;8.40;;;2.40;;
72771;SDS011;60894;42.544;1.516;2023-05-29T13:20:07;7.25;;;2.20;;
72771;SDS011;60894;42.544;1.516;2023-05-29T13:22:36;8.13;;;2.63;;
72771;SDS011;60894;42.544;1.516;2023-05-29T13:25:03;7.57;;;2.47;;
72771;SDS011;60894;42.544;1.516;2023-05-29T13:27:31;7.03;;;2.27;;
72771;SDS011;60894;42.544;1.516;2023-05-29T13:30:01;6.95;;;2.45;;
72771;SDS011;60894;42.544;1.516;2023-05-29T13:32:28;5.65;;;2.35;;
72771;SDS011;60894;42.544;1.516;2023-05-29T13:34:56;8.40;;;2.05;;
72771;SDS011;60894;42.544;1.516;2023-05-29T13:37:22;7.72;;;2.30;;
72771;SDS011;60894;42.544;1.516;2023-05-29T13:39:50;8.03;;;2.50;;
72771;SDS011;60894;42.544;1.516;2023-05-29T13:42:17;5.97;;;2.42;;
72771;SDS011;60894;42.544;1.516;2023-05-29T13:44:44;10.55;;;2.67;;
72771;SDS011;60894;42.544;1.516;2023-05-29T13:47:12;6.47;;;2.40;;
72771;SDS011;60894;42.544;1.516;2023-05-29T13:49:40;7.55;;;2.58;;
72771;SDS011;60894;42.544;1.516;2023-05-29T13:52:07;7.17;;;2.90;;
72771;SDS011;60894;42.544;1.516;2023-05-29T13:54:34;8.38;;;2.90;;
72771;SDS011;60894;42.544;1.516;2023-05-29T13:57:02;7.68;;;2.90;;
72771;SDS011;60894;42.544;1.516;2023-05-29T13:59:29;7.38;;;2.92;;
72771;SDS011;60894;42.544;1.516;2023-05-29T14:01:56;7.10;;;3.08;;
72771;SDS011;60894;42.544;1.516;2023-05-29T14:04:24;9.80;;;2.60;;
72771;SDS011;60894;42.544;1.516;2023-05-29T14:06:52;9.13;;;3.40;;
72771;SDS011;60894;42.544;1.516;2023-05-29T14:09:19;7.18;;;2.70;;
72771;SDS011;60894;42.544;1.516;2023-05-29T14:11:52;9.30;;;2.88;;
72771;SDS011;60894;42.544;1.516;2023-05-29T14:14:19;10.10;;;3.45;;
72771;SDS011;60894;42.544;1.516;2023-05-29T14:16:46;10.47;;;2.97;;
72771;SDS011;60894;42.544;1.516;2023-05-29T14:19:14;8.23;;;3.25;;
72771;SDS011;60894;42.544;1.516;2023-05-29T14:21:42;8.75;;;3.25;;
72771;SDS011;60894;42.544;1.516;2023-05-29T14:24:09;8.10;;;2.65;;
72771;SDS011;60894;42.544;1.516;2023-05-29T14:26:36;8.48;;;3.30;;
72771;SDS011;60894;42.544;1.516;2023-05-29T14:29:03;8.87;;;2.57;;
72771;SDS011;60894;42.544;1.516;2023-05-29T14:31:31;7.43;;;2.65;;
72771;SDS011;60894;42.544;1.516;2023-05-29T14:33:58;9.43;;;2.97;;
72771;SDS011;60894;42.544;1.516;2023-05-29T14:36:24;9.30;;;2.92;;
72771;SDS011;60894;42.544;1.516;2023-05-29T14:38:53;7.50;;;2.70;;
72771;SDS011;60894;42.544;1.516;2023-05-29T14:41:20;6.93;;;2.57;;
72771;SDS011;60894;42.544;1.516;2023-05-29T14:43:47;6.43;;;2.47;;
72771;SDS011;60894;42.544;1.516;2023-05-29T14:46:14;6.55;;;2.40;;
72771;SDS011;60894;42.544;1.516;2023-05-29T14:48:41;7.70;;;2.95;;